createdAt,value
2019-01-18T00:01:24.049Z,-0.29
2019-01-18T00:03:51.674Z,-0.26
2019-01-18T00:06:19.279Z,-0.31
2019-01-18T00:08:46.823Z,-0.28
2019-01-18T00:11:14.400Z,-0.28
2019-01-18T00:13:42.057Z,-0.43
2019-01-18T00:16:09.584Z,-0.54
2019-01-18T00:18:37.048Z,-0.59
2019-01-18T00:21:04.584Z,-0.63
2019-01-18T00:23:32.180Z,-0.39
2019-01-18T00:25:59.626Z,-0.61
2019-01-18T00:28:27.192Z,-0.61
2019-01-18T00:30:54.822Z,-0.52
2019-01-18T00:33:22.445Z,-0.66
2019-01-18T00:35:50.265Z,-0.88
2019-01-18T00:38:17.740Z,-0.84
2019-01-18T00:40:45.350Z,-1.08
2019-01-18T00:43:12.919Z,-1.08
2019-01-18T00:45:40.577Z,-1.22
2019-01-18T00:48:08.271Z,-1.39
2019-01-18T00:50:35.964Z,-1.39
2019-01-18T00:53:03.777Z,-1.60
2019-01-18T00:55:31.558Z,-1.59
2019-01-18T00:57:59.088Z,-1.54
2019-01-18T01:00:27.847Z,-1.33
2019-01-18T01:02:55.574Z,-1.33
2019-01-18T01:05:24.014Z,-1.31
2019-01-18T01:07:51.654Z,-1.56
2019-01-18T01:10:19.376Z,-1.55
2019-01-18T01:12:47.044Z,-1.29
2019-01-18T01:15:16.520Z,-1.31
2019-01-18T01:17:44.158Z,-1.43
2019-01-18T01:20:15.604Z,-1.29
2019-01-18T01:22:43.419Z,-1.47
2019-01-18T01:25:11.290Z,-1.49
2019-01-18T01:27:39.317Z,-1.65
2019-01-18T01:30:11.154Z,-1.74
2019-01-18T01:32:38.746Z,-1.75
2019-01-18T01:35:06.661Z,-2.00
2019-01-18T01:37:34.425Z,-1.16
2019-01-18T01:40:02.009Z,-1.41
2019-01-18T01:42:29.471Z,-1.55
2019-01-18T01:44:56.972Z,-1.51
2019-01-18T01:47:24.461Z,-1.49
2019-01-18T01:49:51.976Z,-1.45
2019-01-18T01:52:19.382Z,-1.68
2019-01-18T01:54:47.346Z,-1.74
2019-01-18T01:57:14.869Z,-1.93
2019-01-18T01:59:42.414Z,-1.64
2019-01-18T02:02:09.956Z,-1.83
2019-01-18T02:04:37.526Z,-1.95
2019-01-18T02:07:05.165Z,-1.57
2019-01-18T02:09:32.706Z,-1.26
2019-01-18T02:12:00.286Z,-1.56
2019-01-18T02:14:27.903Z,-1.11
2019-01-18T02:16:55.367Z,-1.34
2019-01-18T02:19:22.909Z,-0.74
2019-01-18T02:21:50.632Z,-1.23
2019-01-18T02:24:18.324Z,-1.43
2019-01-18T02:26:46.004Z,-1.67
2019-01-18T02:29:13.725Z,-1.62
2019-01-18T02:31:41.279Z,-1.51
2019-01-18T02:34:08.800Z,-1.30
2019-01-18T02:36:36.840Z,-1.44
2019-01-18T02:39:07.424Z,-1.56
2019-01-18T02:41:34.988Z,-1.62
2019-01-18T02:44:02.521Z,-1.28
2019-01-18T02:46:29.958Z,-1.62
2019-01-18T02:48:57.393Z,-1.65
2019-01-18T02:51:24.877Z,-1.70
2019-01-18T02:53:52.435Z,-1.68
2019-01-18T02:56:20.207Z,-1.76
2019-01-18T02:58:47.769Z,-1.71
2019-01-18T03:01:15.279Z,-1.94
2019-01-18T03:03:42.783Z,-2.17
2019-01-18T03:06:10.257Z,-1.99
2019-01-18T03:08:37.900Z,-1.89
2019-01-18T03:11:05.491Z,-1.89
2019-01-18T03:13:33.115Z,-2.11
2019-01-18T03:16:00.811Z,-2.13
2019-01-18T03:18:28.371Z,-2.14
2019-01-18T03:20:55.878Z,-2.31
2019-01-18T03:23:23.347Z,-2.41
2019-01-18T03:25:50.889Z,-2.21
2019-01-18T03:28:18.358Z,-2.33
2019-01-18T03:30:45.906Z,-2.24
2019-01-18T03:33:13.424Z,-2.12
2019-01-18T03:35:40.945Z,-2.32
2019-01-18T03:38:08.715Z,-2.18
2019-01-18T03:40:36.524Z,-2.08
2019-01-18T03:43:04.133Z,-1.71
2019-01-18T03:45:31.650Z,-1.71
2019-01-18T03:47:59.161Z,-1.31
2019-01-18T03:50:27.171Z,-1.84
2019-01-18T03:52:54.708Z,-1.84
2019-01-18T03:55:22.511Z,-1.64
2019-01-18T03:57:50.464Z,-1.82
2019-01-18T04:00:25.990Z,-1.81
2019-01-18T04:02:50.024Z,-2.18
2019-01-18T04:05:17.601Z,-2.26
2019-01-18T04:07:45.155Z,-2.30
2019-01-18T04:10:14.610Z,-2.34
2019-01-18T04:12:42.477Z,-2.24
2019-01-18T04:15:12.791Z,-1.94
2019-01-18T04:17:40.318Z,-2.08
2019-01-18T04:20:09.272Z,-2.38
2019-01-18T04:22:37.101Z,-1.81
2019-01-18T04:25:07.173Z,-1.80
2019-01-18T04:27:34.958Z,-2.17
2019-01-18T04:30:03.919Z,-2.42
2019-01-18T04:32:31.454Z,-2.31
2019-01-18T04:34:59.031Z,-2.31
2019-01-18T04:37:26.667Z,-2.07
2019-01-18T04:39:54.229Z,-2.26
2019-01-18T04:42:21.850Z,-2.43
2019-01-18T04:44:49.367Z,-2.40
2019-01-18T04:47:16.819Z,-2.16
2019-01-18T04:49:44.368Z,-2.07
2019-01-18T04:52:11.963Z,-2.17
2019-01-18T04:54:39.533Z,-2.39
2019-01-18T04:57:07.124Z,-2.27
2019-01-18T04:59:34.876Z,-2.36
2019-01-18T05:02:02.466Z,-2.61
2019-01-18T05:04:30.111Z,-2.76
2019-01-18T05:06:57.845Z,-2.87
2019-01-18T05:09:25.552Z,-3.07
2019-01-18T05:11:53.089Z,-2.93
2019-01-18T05:14:20.602Z,-2.98
2019-01-18T05:16:48.268Z,-3.21
2019-01-18T05:19:15.783Z,-3.21
2019-01-18T05:21:43.469Z,-3.40
2019-01-18T05:24:11.007Z,-2.91
2019-01-18T05:26:38.561Z,-2.91
2019-01-18T05:29:06.091Z,-2.94
2019-01-18T05:31:33.689Z,-2.94
2019-01-18T05:34:01.819Z,-3.13
2019-01-18T05:36:29.335Z,-3.26
2019-01-18T05:38:56.842Z,-3.24
2019-01-18T05:41:24.300Z,-3.33
2019-01-18T05:43:51.883Z,-3.19
2019-01-18T05:46:19.330Z,-3.18
2019-01-18T05:48:47.019Z,-3.07
2019-01-18T05:51:14.747Z,-3.10
2019-01-18T05:53:42.917Z,-2.26
2019-01-18T05:56:10.538Z,-2.56
2019-01-18T05:58:38.188Z,-2.70
2019-01-18T06:01:08.506Z,-2.86
2019-01-18T06:03:36.218Z,-2.60
2019-01-18T06:06:04.789Z,-2.60
2019-01-18T06:08:32.317Z,-2.28
2019-01-18T06:11:00.021Z,-2.06
2019-01-18T06:13:28.243Z,-1.88
2019-01-18T06:15:56.110Z,-1.97
2019-01-18T06:18:24.058Z,-2.06
2019-01-18T06:20:52.743Z,-2.27
2019-01-18T06:23:20.616Z,-2.39
2019-01-18T06:25:48.214Z,-2.20
2019-01-18T06:28:15.736Z,-2.05
2019-01-18T06:30:43.299Z,-2.10
2019-01-18T06:33:10.924Z,-2.10
2019-01-18T06:35:38.582Z,-2.20
2019-01-18T06:38:06.283Z,-2.30
2019-01-18T06:40:33.814Z,-1.96
2019-01-18T06:43:01.399Z,-1.96
2019-01-18T06:45:29.564Z,-1.97
2019-01-18T06:47:57.069Z,-1.98
2019-01-18T06:50:24.690Z,-2.05
2019-01-18T06:52:52.528Z,-2.12
2019-01-18T06:55:20.099Z,-1.98
2019-01-18T06:57:47.597Z,-2.08
2019-01-18T07:00:34.588Z,-2.23
2019-01-18T07:03:02.581Z,-2.17
2019-01-18T07:05:30.297Z,-2.06
2019-01-18T07:07:57.753Z,-1.69
2019-01-18T07:10:25.494Z,-1.94
2019-01-18T07:12:53.214Z,-2.02
2019-01-18T07:15:20.989Z,-2.29
2019-01-18T07:17:48.606Z,-1.94
2019-01-18T07:20:16.942Z,-1.96
2019-01-18T07:22:45.105Z,-1.96
2019-01-18T07:25:26.694Z,-2.12
2019-01-18T07:27:54.369Z,-2.21
2019-01-18T07:30:25.248Z,-2.23
2019-01-18T07:32:53.151Z,-2.21
2019-01-18T07:35:21.480Z,-2.21
2019-01-18T07:37:49.148Z,-1.99
2019-01-18T07:40:16.769Z,-1.92
2019-01-18T07:42:44.372Z,-1.72
2019-01-18T07:45:15.594Z,-1.54
2019-01-18T07:47:43.291Z,-1.52
2019-01-18T07:50:11.636Z,-1.35
2019-01-18T07:52:39.348Z,-1.35
2019-01-18T07:55:07.771Z,-1.02
2019-01-18T07:57:35.477Z,-0.82
2019-01-18T08:00:06.017Z,-0.79
2019-01-18T08:02:33.652Z,-0.74
2019-01-18T08:05:01.238Z,-0.63
2019-01-18T08:07:29.061Z,-0.44
2019-01-18T08:09:56.626Z,-0.30
2019-01-18T08:12:24.239Z,-0.32
2019-01-18T08:14:52.076Z,-0.37
2019-01-18T08:17:19.792Z,-0.26
2019-01-18T08:19:48.780Z,-0.14
2019-01-18T08:22:16.315Z,0.20
2019-01-18T08:24:43.883Z,0.29
2019-01-18T08:27:11.607Z,-0.01
2019-01-18T08:29:39.234Z,0.34
2019-01-18T08:32:06.830Z,0.87
2019-01-18T08:34:34.551Z,1.24
2019-01-18T08:37:02.080Z,1.47
2019-01-18T08:39:29.862Z,1.29
2019-01-18T08:41:57.448Z,1.38
2019-01-18T08:44:25.336Z,1.40
2019-01-18T08:46:52.950Z,1.72
2019-01-18T08:49:20.723Z,1.88
2019-01-18T08:51:52.176Z,2.09
2019-01-18T08:54:20.022Z,2.21
2019-01-18T08:56:47.583Z,2.38
2019-01-18T08:59:15.110Z,2.23
2019-01-18T09:01:42.777Z,2.25
2019-01-18T09:04:10.458Z,2.27
2019-01-18T09:06:38.221Z,2.21
2019-01-18T09:09:08.064Z,2.21
2019-01-18T09:11:36.087Z,2.25
2019-01-18T09:14:04.325Z,2.65
2019-01-18T09:16:31.894Z,2.74
2019-01-18T09:18:59.732Z,3.08
2019-01-18T09:21:27.316Z,3.00
2019-01-18T09:23:56.183Z,3.11
2019-01-18T09:26:23.881Z,3.35
2019-01-18T09:28:52.822Z,3.07
2019-01-18T09:31:20.751Z,2.97
2019-01-18T09:33:49.817Z,2.83
2019-01-18T09:36:17.531Z,2.89
2019-01-18T09:38:45.093Z,2.98
2019-01-18T09:41:12.935Z,3.03
2019-01-18T09:43:40.519Z,2.94
2019-01-18T09:46:08.195Z,3.03
2019-01-18T09:48:35.923Z,3.06
2019-01-18T09:51:03.734Z,3.18
2019-01-18T09:53:31.411Z,2.93
2019-01-18T09:55:59.365Z,2.72
2019-01-18T09:58:27.377Z,2.96
2019-01-18T10:00:55.102Z,3.08
2019-01-18T10:03:22.919Z,2.90
2019-01-18T10:05:51.388Z,2.76
2019-01-18T10:08:20.762Z,2.71
2019-01-18T10:10:49.182Z,2.79
2019-01-18T10:13:17.162Z,2.68
2019-01-18T10:15:46.071Z,2.50
2019-01-18T10:18:14.473Z,2.49
2019-01-18T10:20:42.362Z,2.55
2019-01-18T10:23:10.005Z,2.58
2019-01-18T10:25:37.727Z,2.63
2019-01-18T10:28:05.406Z,2.87
2019-01-18T10:30:33.154Z,2.93
2019-01-18T10:33:00.746Z,2.99
2019-01-18T10:35:29.790Z,3.07
2019-01-18T10:37:57.549Z,3.13
2019-01-18T10:40:25.193Z,3.34
2019-01-18T10:42:52.817Z,3.45
2019-01-18T10:45:20.901Z,3.38
2019-01-18T10:47:48.591Z,3.32
2019-01-18T10:50:18.879Z,3.53
2019-01-18T10:52:47.251Z,3.63
2019-01-18T10:55:15.025Z,3.62
2019-01-18T10:57:42.724Z,3.83
2019-01-18T11:00:34.725Z,3.79
2019-01-18T11:03:02.657Z,3.70
2019-01-18T11:05:30.310Z,3.83
2019-01-18T11:07:57.930Z,3.68
2019-01-18T11:10:25.796Z,3.65
2019-01-18T11:12:53.521Z,3.59
2019-01-18T11:15:27.081Z,3.82
2019-01-18T11:17:56.575Z,3.66
2019-01-18T11:20:33.187Z,3.61
2019-01-18T11:23:01.663Z,3.57
2019-01-18T11:25:31.950Z,4.12
2019-01-18T11:27:59.163Z,3.98
2019-01-18T11:30:27.191Z,3.95
2019-01-18T11:32:54.956Z,3.82
2019-01-18T11:35:22.742Z,3.87
2019-01-18T11:37:51.032Z,3.84
2019-01-18T11:40:20.284Z,3.96
2019-01-18T11:42:48.273Z,4.19
2019-01-18T11:45:16.711Z,4.47
2019-01-18T11:47:44.889Z,4.28
2019-01-18T11:50:23.336Z,4.33
2019-01-18T11:52:50.908Z,4.27
2019-01-18T11:55:18.703Z,4.27
2019-01-18T11:57:46.588Z,4.26
2019-01-18T12:00:17.030Z,4.24
2019-01-18T12:02:44.635Z,4.36
2019-01-18T12:05:12.427Z,4.39
2019-01-18T12:07:40.143Z,4.41
2019-01-18T12:10:10.716Z,4.51
2019-01-18T12:12:38.805Z,4.51
2019-01-18T12:15:08.032Z,4.37
2019-01-18T12:17:35.960Z,4.39
2019-01-18T12:20:05.240Z,4.31
2019-01-18T12:22:34.990Z,4.32
2019-01-18T12:25:02.945Z,4.30
2019-01-18T12:27:30.613Z,4.34
2019-01-18T12:29:58.316Z,4.38
2019-01-18T12:32:28.807Z,4.53
2019-01-18T12:34:55.468Z,4.56
2019-01-18T12:37:23.244Z,4.57
2019-01-18T12:39:50.831Z,4.55
2019-01-18T12:42:18.870Z,4.82
2019-01-18T12:44:46.659Z,5.09
2019-01-18T12:47:14.189Z,5.12
2019-01-18T12:49:41.757Z,5.20
2019-01-18T12:52:09.489Z,5.32
2019-01-18T12:54:37.093Z,5.41
2019-01-18T12:57:05.054Z,5.48
2019-01-18T12:59:33.044Z,5.28
2019-01-18T13:02:00.890Z,5.20
2019-01-18T13:04:28.725Z,5.39
2019-01-18T13:06:56.437Z,5.36
2019-01-18T13:09:24.383Z,5.51
2019-01-18T13:11:52.072Z,5.44
2019-01-18T13:14:19.787Z,5.34
2019-01-18T13:16:47.926Z,5.33
2019-01-18T13:19:21.569Z,5.20
2019-01-18T13:21:49.082Z,5.38
2019-01-18T13:24:16.673Z,5.52
2019-01-18T13:26:44.366Z,5.46
2019-01-18T13:29:12.250Z,5.52
2019-01-18T13:31:39.970Z,5.58
2019-01-18T13:34:07.730Z,5.56
2019-01-18T13:36:35.377Z,5.60
2019-01-18T13:39:06.175Z,5.57
2019-01-18T13:41:33.785Z,5.67
2019-01-18T13:44:01.490Z,5.41
2019-01-18T13:46:29.396Z,5.50
2019-01-18T13:48:57.275Z,5.67
2019-01-18T13:51:24.914Z,5.64
2019-01-18T13:53:52.640Z,5.76
2019-01-18T13:56:20.393Z,5.53
2019-01-18T13:58:48.020Z,5.48
2019-01-18T14:01:15.807Z,5.43
2019-01-18T14:03:43.590Z,5.28
2019-01-18T14:06:11.325Z,5.20
2019-01-18T14:08:39.096Z,5.21
2019-01-18T14:11:17.248Z,5.22
2019-01-18T14:13:44.920Z,5.55
2019-01-18T14:16:12.960Z,5.98
2019-01-18T14:18:41.584Z,6.32
2019-01-18T14:21:10.566Z,6.67
2019-01-18T14:23:38.183Z,6.33
2019-01-18T14:26:05.790Z,5.79
2019-01-18T14:28:33.372Z,5.55
2019-01-18T14:31:01.089Z,5.29
2019-01-18T14:33:28.857Z,5.23
2019-01-18T14:35:56.422Z,5.10
2019-01-18T14:38:25.133Z,5.22
2019-01-18T14:40:52.930Z,5.17
2019-01-18T14:43:20.517Z,4.95
2019-01-18T14:45:47.956Z,5.14
2019-01-18T14:48:15.494Z,5.03
2019-01-18T14:50:43.486Z,4.93
2019-01-18T14:53:11.516Z,4.98
2019-01-18T14:55:39.796Z,5.04
2019-01-18T14:58:10.216Z,4.96
2019-01-18T15:00:39.429Z,4.76
2019-01-18T15:03:07.140Z,4.74
2019-01-18T15:05:35.137Z,4.78
2019-01-18T15:08:02.933Z,4.76
2019-01-18T15:10:30.674Z,4.67
2019-01-18T15:13:01.169Z,4.56
2019-01-18T15:15:28.958Z,4.52
2019-01-18T15:17:56.772Z,4.41
2019-01-18T15:20:26.793Z,4.32
2019-01-18T15:22:54.585Z,4.34
2019-01-18T15:25:22.368Z,4.18
2019-01-18T15:27:50.532Z,4.11
2019-01-18T15:30:20.772Z,4.12
2019-01-18T15:32:48.262Z,4.10
2019-01-18T15:35:17.462Z,4.19
2019-01-18T15:37:45.016Z,4.28
2019-01-18T15:40:15.025Z,4.35
2019-01-18T15:42:42.599Z,4.38
2019-01-18T15:45:10.716Z,4.35
2019-01-18T15:47:38.246Z,4.30
2019-01-18T15:50:09.645Z,4.18
2019-01-18T15:52:37.283Z,4.00
2019-01-18T15:55:06.060Z,3.98
2019-01-18T15:57:33.563Z,3.90
2019-01-18T16:00:01.384Z,4.00
2019-01-18T16:02:29.137Z,3.93
2019-01-18T16:04:56.776Z,3.81
2019-01-18T16:07:24.323Z,3.73
2019-01-18T16:09:51.896Z,3.62
2019-01-18T16:12:19.478Z,3.70
2019-01-18T16:14:47.171Z,3.67
2019-01-18T16:17:22.597Z,3.66
2019-01-18T16:19:50.478Z,3.57
2019-01-18T16:22:18.147Z,3.56
2019-01-18T16:24:45.666Z,3.50
2019-01-18T16:27:13.125Z,3.58
2019-01-18T16:29:40.716Z,3.44
2019-01-18T16:32:08.324Z,3.56
2019-01-18T16:34:35.915Z,3.46
2019-01-18T16:37:03.651Z,3.56
2019-01-18T16:39:31.484Z,3.32
2019-01-18T16:41:59.175Z,3.36
2019-01-18T16:44:27.127Z,3.17
2019-01-18T16:46:54.817Z,3.12
2019-01-18T16:49:22.712Z,3.07
2019-01-18T16:51:50.501Z,3.00
2019-01-18T16:54:18.139Z,2.94
2019-01-18T16:56:45.621Z,3.19
2019-01-18T16:59:13.746Z,3.27
2019-01-18T17:01:41.401Z,3.53
2019-01-18T17:04:09.061Z,3.42
2019-01-18T17:06:36.957Z,3.61
2019-01-18T17:09:26.051Z,3.40
2019-01-18T17:11:53.568Z,3.20
2019-01-18T17:14:21.079Z,3.36
2019-01-18T17:16:48.595Z,3.55
2019-01-18T17:19:15.990Z,3.62
2019-01-18T17:21:43.438Z,3.79
2019-01-18T17:24:10.990Z,3.73
2019-01-18T17:26:38.482Z,3.72
2019-01-18T17:29:05.933Z,3.72
2019-01-18T17:31:33.577Z,4.02
2019-01-18T17:34:01.215Z,4.14
2019-01-18T17:36:35.648Z,4.37
2019-01-18T17:39:21.687Z,4.80
2019-01-18T17:42:42.241Z,4.63
2019-01-18T17:45:46.250Z,4.83
2019-01-18T17:48:26.091Z,4.71
2019-01-18T17:51:27.407Z,4.94
2019-01-18T17:54:13.407Z,5.04
2019-01-18T17:57:09.718Z,4.88
2019-01-18T18:00:24.625Z,4.84
2019-01-18T18:03:43.617Z,5.01
2019-01-18T18:06:43.997Z,5.05
2019-01-18T18:09:23.484Z,4.89
2019-01-18T18:12:17.168Z,4.82
2019-01-18T18:15:10.754Z,4.69
2019-01-18T18:17:45.016Z,4.47
2019-01-18T18:20:37.925Z,4.25
2019-01-18T18:23:53.936Z,4.22
2019-01-18T18:26:48.819Z,4.18
2019-01-18T18:29:54.009Z,4.25
2019-01-18T18:33:14.590Z,4.42
2019-01-18T18:36:24.305Z,4.38
2019-01-18T18:39:29.365Z,4.29
2019-01-18T18:42:33.770Z,4.17
2019-01-18T18:45:48.895Z,3.81
2019-01-18T18:48:50.639Z,3.58
2019-01-18T18:51:43.935Z,3.53
2019-01-18T18:54:48.128Z,3.62
2019-01-18T18:57:26.465Z,3.67
2019-01-18T19:00:41.645Z,3.80
2019-01-18T19:03:57.573Z,3.64
2019-01-18T19:07:35.640Z,3.81
2019-01-18T19:10:33.618Z,3.70
2019-01-18T19:13:45.584Z,3.65
2019-01-18T19:16:34.684Z,3.51
2019-01-18T19:19:34.464Z,3.32
2019-01-18T19:22:29.027Z,3.54
2019-01-18T19:25:37.189Z,3.44
2019-01-18T19:28:36.197Z,3.36
2019-01-18T19:32:00.704Z,3.37
2019-01-18T19:35:14.781Z,3.27
2019-01-18T19:38:28.519Z,3.07
2019-01-18T19:41:53.255Z,2.84
2019-01-18T19:44:58.085Z,2.90
2019-01-18T19:48:01.681Z,2.79
2019-01-18T19:50:59.561Z,2.91
2019-01-18T19:54:02.336Z,2.80
2019-01-18T19:57:20.495Z,2.61
2019-01-18T20:00:19.621Z,2.73
2019-01-18T20:03:17.160Z,2.79
2019-01-18T20:06:41.402Z,2.83
2019-01-18T20:09:15.978Z,2.63
2019-01-18T20:12:28.959Z,2.48
2019-01-18T20:15:12.954Z,2.58
2019-01-18T20:18:07.174Z,2.65
2019-01-18T20:21:19.877Z,2.81
2019-01-18T20:24:27.572Z,2.82
2019-01-18T20:27:25.762Z,2.65
2019-01-18T20:30:11.371Z,2.60
2019-01-18T20:32:50.349Z,2.42
2019-01-18T20:35:58.400Z,2.53
2019-01-18T20:39:16.054Z,2.50
2019-01-18T20:42:14.741Z,2.34
2019-01-18T20:45:26.026Z,2.71
2019-01-18T20:48:34.451Z,2.45
2019-01-18T20:51:39.834Z,2.57
2019-01-18T20:54:44.314Z,2.59
2019-01-18T20:57:34.905Z,2.93
2019-01-18T21:00:31.278Z,3.34
2019-01-18T21:03:42.264Z,3.53
2019-01-18T21:06:30.110Z,3.78
2019-01-18T21:09:57.348Z,3.94
2019-01-18T21:12:56.260Z,4.00
2019-01-18T21:15:43.889Z,3.56
2019-01-18T21:18:31.576Z,3.68
2019-01-18T21:21:51.923Z,3.73
2019-01-18T21:24:46.430Z,3.85
2019-01-18T21:27:52.687Z,3.82
2019-01-18T21:30:36.553Z,3.90
2019-01-18T21:33:48.376Z,4.12
2019-01-18T21:37:18.391Z,4.20
2019-01-18T21:40:27.882Z,4.34
2019-01-18T21:43:31.629Z,4.29
2019-01-18T21:46:42.430Z,4.37
2019-01-18T21:49:24.594Z,4.34
2019-01-18T21:52:35.468Z,4.31
2019-01-18T21:55:14.801Z,4.07
2019-01-18T21:58:32.788Z,3.87
2019-01-18T22:01:29.106Z,3.76
2019-01-18T22:04:43.569Z,3.53
2019-01-18T22:07:56.063Z,3.28
2019-01-18T22:10:54.438Z,2.89
2019-01-18T22:13:57.462Z,2.66
2019-01-18T22:16:54.106Z,2.75
2019-01-18T22:20:08.104Z,2.36
2019-01-18T22:23:12.528Z,2.34
2019-01-18T22:26:02.902Z,2.36
2019-01-18T22:29:24.286Z,2.43
2019-01-18T22:32:20.913Z,2.34
2019-01-18T22:35:21.212Z,2.45
2019-01-18T22:38:00.975Z,2.47
2019-01-18T22:41:10.183Z,2.59
2019-01-18T22:44:17.652Z,2.56
2019-01-18T22:47:19.778Z,2.38
2019-01-18T22:50:02.673Z,2.36
2019-01-18T22:52:41.094Z,2.30
2019-01-18T22:55:54.278Z,2.35
2019-01-18T22:58:50.382Z,2.53
2019-01-18T23:01:39.731Z,2.59
2019-01-18T23:04:36.289Z,2.49
2019-01-18T23:07:43.448Z,2.33
2019-01-18T23:10:37.654Z,2.49
2019-01-18T23:14:01.707Z,2.46
2019-01-18T23:17:09.297Z,2.35
2019-01-18T23:20:28.942Z,2.29
2019-01-18T23:23:53.358Z,2.24
2019-01-18T23:27:13.554Z,1.99
2019-01-18T23:29:49.421Z,1.82
2019-01-18T23:32:28.022Z,1.39
2019-01-18T23:35:17.639Z,1.34
2019-01-18T23:38:36.417Z,1.13
2019-01-18T23:41:48.885Z,1.06
2019-01-18T23:45:14.439Z,0.62
2019-01-18T23:48:12.863Z,1.07
2019-01-18T23:51:15.147Z,1.04
2019-01-18T23:54:15.393Z,1.43
2019-01-18T23:57:11.565Z,1.69
